Time;durP1;ratioP1;P1;durP2;ratioP2;P2;SDS_P1;SDS_P2;PMS_P1;PMS_P2;Temp;Humidity;BMP_temperature;BMP_pressure;BME280_temperature;BME280_humidity;BME280_pressure;Samples;Min_cycle;Max_cycle;Signal;HPM_P1;HPM_P2
2023/03/01 00:02:19;;;;;;;4.03;2.20;;;17.60;34.60;;;;;;5071220;28;20219;-61
2023/03/01 00:04:46;;;;;;;3.40;2.20;;;17.60;34.60;;;;;;5071068;28;20191;-60
2023/03/01 00:07:13;;;;;;;3.10;2.20;;;17.60;34.50;;;;;;5071129;28;20707;-63
2023/03/01 00:09:40;;;;;;;3.40;2.20;;;17.60;34.50;;;;;;5070808;28;20710;-65
2023/03/01 00:12:08;;;;;;;3.30;2.22;;;17.50;34.40;;;;;;5071251;28;20214;-60
2023/03/01 00:14:36;;;;;;;2.42;1.85;;;17.50;34.30;;;;;;5070782;28;20195;-60
2023/03/01 00:17:03;;;;;;;3.47;2.30;;;17.50;34.30;;;;;;5070543;28;20260;-61
2023/03/01 00:19:32;;;;;;;2.40;2.00;;;17.60;34.40;;;;;;5070660;28;20222;-60
2023/03/01 00:21:59;;;;;;;3.03;2.15;;;17.50;34.40;;;;;;5071238;28;20219;-63
2023/03/01 00:24:26;;;;;;;2.20;2.00;;;17.50;34.30;;;;;;5070974;28;20251;-60
2023/03/01 00:26:56;;;;;;;3.38;2.30;;;17.50;34.30;;;;;;5070716;28;20219;-60
2023/03/01 00:29:23;;;;;;;2.15;1.90;;;17.50;34.40;;;;;;5070508;28;20657;-62
2023/03/01 00:31:51;;;;;;;3.10;2.17;;;17.50;34.30;;;;;;5070820;28;20257;-61
2023/03/01 00:34:18;;;;;;;3.13;2.17;;;17.50;35.00;;;;;;5070808;28;20269;-65
2023/03/01 00:36:46;;;;;;;2.92;2.03;;;17.50;34.30;;;;;;5070216;28;20573;-62
2023/03/01 00:39:15;;;;;;;3.22;2.28;;;17.50;34.30;;;;;;5070764;28;20221;-65
2023/03/01 00:41:44;;;;;;;2.22;2.03;;;17.40;34.30;;;;;;5070831;28;20220;-60
2023/03/01 00:44:11;;;;;;;2.83;2.00;;;17.40;34.30;;;;;;5070822;28;20201;-60
2023/03/01 00:46:38;;;;;;;3.47;1.75;;;17.40;34.30;;;;;;5070411;28;20214;-62
2023/03/01 00:49:06;;;;;;;2.95;2.03;;;17.40;34.30;;;;;;5072109;28;20706;-63
2023/03/01 00:51:33;;;;;;;3.17;2.17;;;17.40;34.30;;;;;;5074580;28;20219;-64
2023/03/01 00:54:03;;;;;;;3.97;2.08;;;17.40;34.30;;;;;;5073989;28;20704;-59
2023/03/01 00:56:31;;;;;;;2.95;2.08;;;17.40;34.20;;;;;;5073936;28;20214;-65
2023/03/01 00:58:58;;;;;;;2.75;1.88;;;17.40;34.20;;;;;;5074013;28;20187;-61
2023/03/01 01:01:30;;;;;;;3.88;2.13;;;17.40;34.10;;;;;;5074162;28;20241;-67
2023/03/01 01:03:59;;;;;;;2.22;2.03;;;17.40;34.00;;;;;;5074397;28;20191;-63
2023/03/01 01:06:28;;;;;;;2.70;1.88;;;17.40;34.00;;;;;;5073834;28;20653;-59
2023/03/01 01:08:56;;;;;;;2.85;2.20;;;17.40;34.00;;;;;;5074077;28;20245;-59
2023/03/01 01:11:27;;;;;;;2.60;1.80;;;17.40;33.90;;;;;;5073959;28;20237;-62
2023/03/01 01:13:55;;;;;;;3.58;2.17;;;17.30;33.70;;;;;;5073850;28;20214;-60
2023/03/01 01:16:24;;;;;;;2.88;2.17;;;17.30;33.70;;;;;;5073904;28;20248;-61
2023/03/01 01:18:51;;;;;;;2.17;1.70;;;17.30;33.70;;;;;;5073736;28;20244;-59
2023/03/01 01:21:22;;;;;;;3.28;1.92;;;17.30;33.70;;;;;;5073540;28;20230;-60
2023/03/01 01:23:49;;;;;;;2.90;2.03;;;17.30;33.70;;;;;;5073857;28;20615;-59
2023/03/01 01:26:19;;;;;;;2.38;1.83;;;17.30;33.60;;;;;;5073948;28;20552;-59
2023/03/01 01:28:47;;;;;;;2.90;1.92;;;17.30;33.50;;;;;;5073610;28;20183;-61
2023/03/01 01:31:15;;;;;;;2.25;1.90;;;17.20;33.50;;;;;;5073841;28;20187;-61
2023/03/01 01:33:43;;;;;;;3.40;1.90;;;17.30;33.50;;;;;;5073303;28;20886;-62
2023/03/01 01:36:10;;;;;;;2.60;2.03;;;17.30;33.50;;;;;;5073428;28;20195;-60
2023/03/01 01:38:39;;;;;;;2.53;1.90;;;17.30;33.40;;;;;;5053477;28;20199;-58
2023/03/01 01:41:07;;;;;;;2.80;2.25;;;17.20;33.30;;;;;;5053529;28;20217;-61
2023/03/01 01:43:36;;;;;;;1.75;1.60;;;17.20;34.00;;;;;;5053682;28;20212;-61
2023/03/01 01:46:06;;;;;;;2.83;2.00;;;17.20;33.30;;;;;;5053708;28;20192;-59
2023/03/01 01:48:41;;;;;;;2.67;2.10;;;17.20;33.20;;;;;;5053318;28;20220;-59
2023/03/01 01:51:12;;;;;;;1.92;1.73;;;17.20;33.20;;;;;;5052984;28;20644;-60
2023/03/01 01:53:41;;;;;;;2.08;1.70;;;17.20;33.20;;;;;;5053012;28;20717;-59
2023/03/01 01:56:11;;;;;;;3.30;1.90;;;17.20;33.20;;;;;;5052929;28;20234;-61
2023/03/01 01:58:39;;;;;;;2.28;1.65;;;17.20;33.20;;;;;;5052473;28;20273;-65
2023/03/01 02:01:09;;;;;;;3.15;1.80;;;17.20;33.10;;;;;;5053037;28;20191;-59
2023/03/01 02:03:41;;;;;;;2.60;1.90;;;17.10;33.10;;;;;;5053077;28;20569;-59
2023/03/01 02:06:16;;;;;;;2.92;2.08;;;17.10;33.10;;;;;;5053001;28;20202;-64
2023/03/01 02:08:45;;;;;;;2.75;1.80;;;17.10;33.00;;;;;;5052698;28;20187;-60
2023/03/01 02:11:14;;;;;;;3.10;1.95;;;17.10;32.90;;;;;;5052905;28;20188;-63
2023/03/01 02:13:42;;;;;;;3.08;2.10;;;17.10;32.90;;;;;;5052944;28;20322;-59
2023/03/01 02:16:13;;;;;;;3.20;2.15;;;17.10;32.90;;;;;;5052787;28;20196;-58
2023/03/01 02:18:42;;;;;;;4.15;1.95;;;17.10;32.90;;;;;;5052973;28;20270;-59
2023/03/01 02:21:26;;;;;;;2.70;1.90;;;17.10;32.90;;;;;;5052515;28;20656;-60
2023/03/01 02:23:55;;;;;;;2.03;1.80;;;17.10;32.80;;;;;;5052403;28;20646;-59
2023/03/01 02:26:31;;;;;;;4.50;2.28;;;17.10;32.80;;;;;;5052355;28;20192;-60
2023/03/01 02:29:00;;;;;;;2.90;2.10;;;17.10;32.80;;;;;;5052150;28;20635;-65
2023/03/01 02:31:42;;;;;;;2.97;1.95;;;17.10;32.80;;;;;;5052196;28;20195;-60
2023/03/01 02:34:13;;;;;;;2.42;1.90;;;17.10;32.80;;;;;;5052514;28;20281;-60
2023/03/01 02:36:43;;;;;;;2.53;2.10;;;17.10;32.80;;;;;;5055000;28;20272;-59
2023/03/01 02:39:17;;;;;;;3.22;2.00;;;17.10;32.80;;;;;;5070671;28;20237;-60
2023/03/01 02:41:48;;;;;;;2.63;2.10;;;17.10;32.80;;;;;;5070954;28;20301;-60
2023/03/01 02:44:16;;;;;;;2.83;2.03;;;17.00;32.60;;;;;;5071027;28;20190;-60
2023/03/01 02:46:45;;;;;;;2.30;1.98;;;17.00;32.60;;;;;;5071521;28;20219;-59
2023/03/01 02:49:25;;;;;;;3.42;2.30;;;17.00;32.60;;;;;;5070424;28;20722;-60
2023/03/01 02:52:38;;;;;;;2.90;2.22;;;17.00;32.60;;;;;;5070438;28;20218;-65
2023/03/01 02:55:09;;;;;;;2.47;1.90;;;17.00;32.50;;;;;;5055320;28;20222;-60
2023/03/01 02:57:39;;;;;;;2.75;2.20;;;17.00;32.60;;;;;;5070462;28;20260;-60
2023/03/01 03:00:10;;;;;;;2.92;1.88;;;17.00;32.60;;;;;;5070347;28;20276;-60
2023/03/01 03:02:37;;;;;;;2.42;2.22;;;17.00;32.50;;;;;;5065924;28;20219;-60
2023/03/01 03:05:08;;;;;;;3.50;2.40;;;17.00;32.50;;;;;;5070269;28;20191;-60
2023/03/01 03:07:36;;;;;;;3.33;2.10;;;17.00;32.50;;;;;;5070243;28;20211;-60
2023/03/01 03:10:04;;;;;;;2.10;1.90;;;17.00;33.20;;;;;;5070085;28;20192;-65
2023/03/01 03:12:31;;;;;;;2.45;1.90;;;17.00;32.50;;;;;;5070154;28;20218;-59
2023/03/01 03:14:58;;;;;;;2.65;2.17;;;17.00;32.50;;;;;;5069893;28;20218;-60
2023/03/01 03:17:27;;;;;;;2.85;2.10;;;17.00;32.50;;;;;;5070349;28;20215;-61
2023/03/01 03:19:54;;;;;;;3.10;2.00;;;17.00;32.40;;;;;;5069780;28;20222;-60
2023/03/01 03:22:21;;;;;;;2.83;2.10;;;17.00;32.50;;;;;;5070011;28;20211;-59
2023/03/01 03:24:48;;;;;;;2.58;2.03;;;17.00;32.50;;;;;;5069893;28;20677;-59
2023/03/01 03:27:15;;;;;;;2.80;2.47;;;17.00;32.40;;;;;;5069875;28;20219;-61
2023/03/01 03:29:42;;;;;;;2.80;2.10;;;16.90;32.30;;;;;;5069991;28;20187;-62
2023/03/01 03:32:09;;;;;;;2.55;1.95;;;16.90;32.30;;;;;;5069972;28;20223;-61
2023/03/01 03:34:37;;;;;;;2.72;2.10;;;17.00;32.30;;;;;;5069640;28;20704;-62
2023/03/01 03:38:01;;;;;;;2.95;2.03;;;17.00;32.30;;;;;;5069396;28;20240;-63
2023/03/01 03:39:54;;;;;;;3.50;2.40;;;16.90;32.20;;;;;;5069283;28;20275;-63
2023/03/01 03:42:22;;;;;;;3.53;2.10;;;16.90;32.20;;;;;;5069848;28;20214;-60
2023/03/01 03:44:49;;;;;;;2.53;2.20;;;16.90;32.20;;;;;;5069441;28;20190;-60
2023/03/01 03:47:16;;;;;;;3.28;2.40;;;16.90;32.20;;;;;;5069730;28;20276;-62
2023/03/01 03:49:45;;;;;;;3.58;2.53;;;16.90;32.20;;;;;;5069672;28;20244;-62
2023/03/01 03:52:13;;;;;;;2.65;2.10;;;16.90;32.20;;;;;;5069363;28;20218;-65
2023/03/01 03:54:41;;;;;;;2.50;2.30;;;16.90;32.20;;;;;;5069192;28;20735;-61
2023/03/01 03:57:08;;;;;;;3.33;2.30;;;16.90;32.20;;;;;;5069793;28;20215;-61
2023/03/01 03:59:35;;;;;;;2.72;2.42;;;16.90;32.20;;;;;;5069172;28;20229;-60
2023/03/01 04:02:02;;;;;;;2.95;2.33;;;16.90;32.20;;;;;;5069225;28;20214;-63
2023/03/01 04:04:29;;;;;;;3.33;2.80;;;16.90;32.20;;;;;;5069622;28;20190;-60
2023/03/01 04:06:58;;;;;;;3.45;2.33;;;16.90;32.20;;;;;;5069743;28;20214;-66
2023/03/01 04:09:25;;;;;;;3.47;2.50;;;16.90;32.10;;;;;;5069431;28;20183;-63
2023/03/01 04:11:52;;;;;;;3.33;2.53;;;16.90;32.10;;;;;;5069316;28;20299;-61
2023/03/01 04:14:19;;;;;;;4.38;2.30;;;16.90;32.10;;;;;;5069537;28;20348;-65
2023/03/01 04:16:46;;;;;;;2.85;2.20;;;16.90;32.10;;;;;;5069491;28;20187;-61
2023/03/01 04:19:15;;;;;;;2.67;2.47;;;16.90;32.80;;;;;;5068617;28;20179;-60
2023/03/01 04:21:41;;;;;;;2.85;2.30;;;16.80;32.00;;;;;;5069239;28;20195;-64
2023/03/01 04:24:10;;;;;;;2.35;2.15;;;16.90;32.10;;;;;;5071852;28;20794;-60
2023/03/01 04:26:37;;;;;;;4.40;2.50;;;16.90;32.10;;;;;;5073522;28;20269;-61
2023/03/01 04:29:05;;;;;;;3.10;2.17;;;16.90;32.10;;;;;;5073291;28;20244;-60
2023/03/01 04:31:32;;;;;;;4.18;2.72;;;16.90;32.00;;;;;;5073516;28;20244;-64
2023/03/01 04:33:59;;;;;;;2.78;2.42;;;16.80;31.90;;;;;;5073450;28;20214;-60
2023/03/01 04:36:29;;;;;;;2.65;2.28;;;16.80;31.90;;;;;;5073606;28;20190;-60
2023/03/01 04:38:56;;;;;;;3.90;2.60;;;16.80;31.90;;;;;;5073036;28;20214;-64
2023/03/01 04:41:25;;;;;;;5.45;2.70;;;16.90;32.00;;;;;;5073343;28;20187;-65
2023/03/01 04:43:52;;;;;;;2.78;2.10;;;16.80;31.90;;;;;;5073164;28;20215;-59
2023/03/01 04:46:21;;;;;;;3.05;2.40;;;16.80;31.90;;;;;;5072945;28;20187;-60
2023/03/01 04:48:49;;;;;;;3.33;2.30;;;16.80;31.80;;;;;;5073001;28;20291;-66
2023/03/01 04:51:18;;;;;;;2.65;2.28;;;16.80;31.90;;;;;;5072892;28;20244;-60
2023/03/01 04:53:45;;;;;;;2.67;2.40;;;16.80;31.80;;;;;;5072823;28;20704;-60
2023/03/01 04:56:13;;;;;;;2.80;2.42;;;16.80;31.90;;;;;;5072962;28;20195;-66
2023/03/01 04:58:42;;;;;;;2.92;2.30;;;16.80;31.80;;;;;;5073022;28;20226;-60
2023/03/01 05:01:14;;;;;;;4.38;2.65;;;16.80;31.80;;;;;;5072864;28;20248;-60
2023/03/01 05:03:42;;;;;;;2.63;2.38;;;16.80;31.80;;;;;;5072796;28;20242;-59
2023/03/01 05:06:10;;;;;;;4.88;2.50;;;16.80;31.90;;;;;;5072878;28;20191;-59
2023/03/01 05:08:38;;;;;;;3.22;2.42;;;16.80;31.80;;;;;;5072270;28;20219;-60
2023/03/01 05:11:08;;;;;;;3.75;2.38;;;16.80;31.80;;;;;;5072804;28;20186;-60
2023/03/01 05:13:35;;;;;;;3.75;2.70;;;16.80;31.80;;;;;;5072409;28;20215;-60
2023/03/01 05:16:05;;;;;;;3.30;2.53;;;16.80;31.80;;;;;;5072745;28;20276;-65
2023/03/01 05:18:34;;;;;;;3.72;2.85;;;16.70;31.70;;;;;;5072246;28;20233;-60
2023/03/01 05:21:04;;;;;;;3.35;2.50;;;16.70;31.70;;;;;;5071343;28;20299;-63
2023/03/01 05:23:31;;;;;;;3.17;2.80;;;16.80;31.80;;;;;;5071618;28;20223;-63
2023/03/01 05:25:59;;;;;;;3.50;2.90;;;16.70;31.70;;;;;;5071026;28;20183;-60
2023/03/01 05:28:27;;;;;;;2.92;2.53;;;16.70;31.70;;;;;;5070892;28;20772;-61
2023/03/01 05:30:55;;;;;;;3.05;2.75;;;16.70;31.70;;;;;;5071006;28;20405;-63
2023/03/01 05:33:24;;;;;;;3.03;2.72;;;16.70;31.70;;;;;;5071208;28;20219;-60
2023/03/01 05:35:53;;;;;;;6.53;3.08;;;16.70;31.70;;;;;;5070468;28;20215;-61
2023/03/01 05:38:22;;;;;;;3.22;2.72;;;16.70;31.60;;;;;;5070716;28;20233;-61
2023/03/01 05:40:49;;;;;;;3.10;2.80;;;16.70;31.70;;;;;;5071103;28;20195;-60
2023/03/01 05:43:18;;;;;;;4.03;2.85;;;16.70;31.60;;;;;;5071057;28;20647;-59
2023/03/01 05:45:45;;;;;;;3.33;2.22;;;16.80;31.60;;;;;;5070736;28;20191;-62
2023/03/01 05:48:13;;;;;;;5.00;2.47;;;16.70;31.50;;;;;;5070445;28;20822;-59
2023/03/01 05:50:43;;;;;;;2.83;2.45;;;16.80;31.50;;;;;;5070933;28;20182;-60
2023/03/01 05:53:13;;;;;;;3.42;2.40;;;16.80;31.50;;;;;;5071450;28;20215;-59
2023/03/01 05:55:40;;;;;;;2.97;2.35;;;16.80;31.40;;;;;;5072302;28;20265;-60
2023/03/01 05:58:10;;;;;;;5.90;2.55;;;16.90;31.50;;;;;;5072222;28;20275;-60
2023/03/01 06:00:37;;;;;;;3.00;2.40;;;16.90;31.50;;;;;;5071835;28;20664;-65
2023/03/01 06:03:05;;;;;;;3.05;2.50;;;17.00;31.60;;;;;;5071628;28;20219;-59
2023/03/01 06:05:32;;;;;;;5.93;2.35;;;17.00;31.50;;;;;;5072048;28;20236;-59
2023/03/01 06:08:02;;;;;;;3.75;2.40;;;17.10;31.60;;;;;;5071611;28;20219;-59
2023/03/01 06:10:29;;;;;;;2.60;2.38;;;17.10;31.60;;;;;;5071354;28;20256;-60
2023/03/01 06:12:56;;;;;;;2.35;2.13;;;17.20;31.60;;;;;;5071692;28;20218;-66
2023/03/01 06:15:24;;;;;;;2.42;1.92;;;17.20;31.60;;;;;;5071651;28;20249;-63
2023/03/01 06:17:51;;;;;;;2.55;2.20;;;17.30;31.60;;;;;;5071357;28;20261;-58
2023/03/01 06:20:20;;;;;;;2.83;1.95;;;17.30;31.50;;;;;;5027262;28;1276602;-66
2023/03/01 06:22:48;;;;;;;2.58;2.03;;;17.40;31.50;;;;;;5072017;28;20215;-63
2023/03/01 06:25:20;;;;;;;2.72;2.28;;;17.40;31.50;;;;;;5072628;28;20320;-59
2023/03/01 06:27:48;;;;;;;3.88;2.30;;;17.50;31.50;;;;;;5072714;28;20276;-59
2023/03/01 06:30:18;;;;;;;2.97;2.40;;;17.50;31.40;;;;;;5072146;28;20186;-60
2023/03/01 06:32:45;;;;;;;3.58;2.00;;;17.60;31.40;;;;;;5072195;28;20211;-60
2023/03/01 06:35:17;;;;;;;4.97;2.30;;;17.60;31.30;;;;;;5072141;28;20568;-64
2023/03/01 06:37:45;;;;;;;3.78;2.28;;;17.60;31.20;;;;;;5072322;28;20260;-64
2023/03/01 06:40:13;;;;;;;3.85;2.20;;;17.70;31.20;;;;;;5072041;28;20191;-62
2023/03/01 06:42:44;;;;;;;2.38;2.10;;;17.70;31.20;;;;;;5072345;28;20254;-60
2023/03/01 06:45:12;;;;;;;4.07;2.08;;;17.70;31.20;;;;;;5072275;28;20187;-63
2023/03/01 06:47:39;;;;;;;2.25;2.05;;;17.80;31.20;;;;;;5071456;28;20268;-61
2023/03/01 06:50:06;;;;;;;3.10;2.15;;;17.80;31.10;;;;;;5071415;28;20569;-66
2023/03/01 06:52:33;;;;;;;2.97;2.20;;;17.80;31.10;;;;;;5071829;28;20759;-61
2023/03/01 06:55:01;;;;;;;2.65;1.98;;;17.90;31.10;;;;;;5071867;28;20244;-64
2023/03/01 06:57:28;;;;;;;4.20;2.30;;;17.90;31.00;;;;;;5071745;28;20218;-66
2023/03/01 06:59:57;;;;;;;3.47;2.28;;;18.00;31.00;;;;;;5071381;28;20217;-63
2023/03/01 07:02:24;;;;;;;4.07;2.00;;;18.00;31.00;;;;;;5071630;28;20814;-63
2023/03/01 07:04:52;;;;;;;2.78;2.20;;;18.00;31.00;;;;;;5071635;28;20186;-60
2023/03/01 07:07:19;;;;;;;3.13;2.22;;;18.00;30.90;;;;;;5085082;28;20222;-63
2023/03/01 07:09:47;;;;;;;5.30;2.30;;;18.10;31.00;;;;;;5068435;28;20190;-60
2023/03/01 07:12:15;;;;;;;3.25;2.22;;;18.10;31.10;;;;;;5054831;28;20223;-65
2023/03/01 07:14:42;;;;;;;2.70;2.10;;;18.10;31.00;;;;;;5051238;28;20237;-60
2023/03/01 07:17:10;;;;;;;2.35;1.90;;;18.20;31.10;;;;;;5069975;28;20614;-65
2023/03/01 07:19:37;;;;;;;2.10;1.80;;;18.30;31.20;;;;;;5072056;28;20226;-66
2023/03/01 07:22:07;;;;;;;6.65;2.55;;;18.30;31.10;;;;;;5072253;28;20187;-59
2023/03/01 07:24:34;;;;;;;2.38;1.88;;;18.30;31.00;;;;;;5072014;28;20203;-60
2023/03/01 07:27:01;;;;;;;3.20;1.98;;;18.40;31.10;;;;;;5071910;28;20190;-59
2023/03/01 07:29:29;;;;;;;3.85;2.38;;;18.40;31.00;;;;;;5072147;28;20252;-62
2023/03/01 07:31:56;;;;;;;3.60;2.40;;;18.50;31.00;;;;;;5072084;28;20226;-65
2023/03/01 07:34:25;;;;;;;2.33;1.90;;;18.50;30.90;;;;;;5072261;28;20241;-62
2023/03/01 07:36:52;;;;;;;2.72;2.15;;;18.50;31.50;;;;;;5077781;28;20297;-64
2023/03/01 07:39:19;;;;;;;2.50;2.30;;;18.60;30.90;;;;;;5092293;28;20218;-65
2023/03/01 07:41:46;;;;;;;3.83;2.58;;;18.60;30.40;;;;;;5092241;28;20243;-64
2023/03/01 07:44:14;;;;;;;3.50;2.50;;;18.60;30.30;;;;;;5092099;28;20225;-60
2023/03/01 07:46:41;;;;;;;3.95;2.67;;;18.50;30.20;;;;;;5092274;28;20285;-61
2023/03/01 07:49:09;;;;;;;3.38;2.10;;;18.50;30.20;;;;;;5086144;28;20218;-59
2023/03/01 07:51:37;;;;;;;3.53;2.67;;;18.40;30.10;;;;;;5060808;28;20198;-60
2023/03/01 07:54:04;;;;;;;3.42;2.58;;;18.40;30.10;;;;;;5050070;28;20273;-60
2023/03/01 07:56:32;;;;;;;6.28;2.42;;;18.40;30.10;;;;;;5061383;28;20211;-64
2023/03/01 07:59:00;;;;;;;3.55;2.42;;;18.40;30.10;;;;;;5071087;28;20217;-64
2023/03/01 08:01:28;;;;;;;4.65;2.88;;;18.40;30.10;;;;;;5076891;28;20198;-63
2023/03/01 08:03:54;;;;;;;7.43;3.30;;;18.40;30.10;;;;;;5091621;28;20252;-64
2023/03/01 08:06:22;;;;;;;8.20;2.50;;;18.40;30.10;;;;;;5091461;28;20330;-62
2023/03/01 08:08:50;;;;;;;6.05;2.65;;;18.40;30.10;;;;;;5080035;28;20218;-62
2023/03/01 08:11:18;;;;;;;4.07;2.47;;;18.40;30.10;;;;;;5071639;28;20241;-64
2023/03/01 08:13:48;;;;;;;3.80;2.33;;;18.40;30.10;;;;;;5071326;28;20222;-65
2023/03/01 08:16:16;;;;;;;4.30;2.75;;;18.40;30.10;;;;;;5070398;28;20263;-63
2023/03/01 08:18:44;;;;;;;5.10;2.85;;;18.40;30.10;;;;;;5070066;28;20714;-58
2023/03/01 08:21:13;;;;;;;6.45;2.60;;;18.40;30.10;;;;;;5071617;28;20309;-64
2023/03/01 08:23:42;;;;;;;4.90;2.47;;;18.40;30.20;;;;;;5071373;28;20214;-59
2023/03/01 08:26:12;;;;;;;3.10;2.63;;;18.40;30.10;;;;;;5071422;28;20244;-63
2023/03/01 08:28:40;;;;;;;4.65;2.42;;;18.40;30.10;;;;;;5071459;28;20220;-63
2023/03/01 08:31:15;;;;;;;3.47;2.45;;;18.40;30.10;;;;;;5071379;28;20256;-61
2023/03/01 08:33:42;;;;;;;4.90;2.50;;;18.40;30.10;;;;;;5071072;28;20217;-64
2023/03/01 08:36:10;;;;;;;3.25;2.53;;;18.40;30.10;;;;;;5070919;28;20222;-62
2023/03/01 08:38:37;;;;;;;3.67;2.78;;;18.40;30.10;;;;;;5051190;28;20219;-65
2023/03/01 08:41:05;;;;;;;4.25;2.85;;;18.40;30.10;;;;;;5065912;28;20260;-65
2023/03/01 08:43:33;;;;;;;3.95;2.50;;;18.50;30.20;;;;;;5070930;28;20219;-65
2023/03/01 08:46:01;;;;;;;4.05;2.72;;;18.40;30.10;;;;;;5070735;28;20726;-65
2023/03/01 08:48:29;;;;;;;3.63;2.47;;;18.40;30.10;;;;;;5071179;28;20219;-66
2023/03/01 08:50:56;;;;;;;3.25;2.42;;;18.50;30.20;;;;;;5071178;28;20596;-62
2023/03/01 08:53:24;;;;;;;6.05;3.10;;;18.50;30.20;;;;;;5068783;28;20223;-66
2023/03/01 08:55:51;;;;;;;3.33;2.55;;;18.50;30.20;;;;;;5070251;28;20222;-66
2023/03/01 08:58:18;;;;;;;4.10;2.60;;;18.50;30.20;;;;;;5059960;28;20224;-65
2023/03/01 09:00:46;;;;;;;3.17;2.70;;;18.60;30.30;;;;;;5059988;28;20195;-63
2023/03/01 09:03:13;;;;;;;5.60;3.03;;;18.60;30.30;;;;;;5054597;28;20762;-60
2023/03/01 09:05:40;;;;;;;7.40;3.00;;;18.60;30.30;;;;;;5062969;28;20203;-60
2023/03/01 09:08:08;;;;;;;3.42;2.65;;;18.60;30.30;;;;;;5064753;28;20292;-59
2023/03/01 09:10:39;;;;;;;6.70;3.28;;;18.60;30.30;;;;;;5055650;28;20764;-61
2023/03/01 09:13:06;;;;;;;5.50;2.88;;;18.60;30.30;;;;;;5060916;28;20314;-60
2023/03/01 09:15:33;;;;;;;3.88;2.92;;;18.60;30.30;;;;;;5054311;28;20258;-63
2023/03/01 09:18:02;;;;;;;6.57;2.88;;;18.60;30.30;;;;;;5053979;28;20216;-62
2023/03/01 09:20:34;;;;;;;9.07;3.08;;;18.60;30.30;;;;;;5053637;28;20724;-62
2023/03/01 09:23:03;;;;;;;3.42;2.88;;;18.60;30.30;;;;;;5060735;28;20241;-62
2023/03/01 09:25:30;;;;;;;11.82;3.60;;;18.60;30.30;;;;;;5056090;28;20199;-63
2023/03/01 09:27:57;;;;;;;6.15;3.13;;;18.60;30.30;;;;;;5060058;28;20624;-61
2023/03/01 09:30:25;;;;;;;5.57;3.22;;;18.60;30.30;;;;;;5053975;28;20261;-60
2023/03/01 09:32:52;;;;;;;4.38;3.10;;;18.70;30.40;;;;;;5053913;28;20302;-60
2023/03/01 09:35:23;;;;;;;4.40;3.10;;;18.70;30.40;;;;;;5053741;28;20289;-59
2023/03/01 09:37:53;;;;;;;6.65;3.33;;;18.70;30.40;;;;;;5043257;28;20295;-63
2023/03/01 09:40:27;;;;;;;4.18;3.15;;;18.70;30.40;;;;;;5054189;28;20226;-62
2023/03/01 09:43:00;;;;;;;3.67;3.05;;;18.70;30.40;;;;;;5018373;28;20895;-61
2023/03/01 09:45:34;;;;;;;6.25;3.00;;;18.70;30.40;;;;;;5070143;28;20194;-61
2023/03/01 09:48:03;;;;;;;3.67;2.72;;;18.70;30.40;;;;;;5061195;28;20751;-62
2023/03/01 09:50:37;;;;;;;7.57;3.30;;;18.70;30.40;;;;;;5053538;28;20192;-63
2023/03/01 09:53:07;;;;;;;7.43;2.70;;;18.70;30.40;;;;;;5059211;28;20256;-64
2023/03/01 09:55:39;;;;;;;4.72;2.88;;;18.70;30.40;;;;;;5073887;28;20183;-66
2023/03/01 09:58:26;;;;;;;4.75;3.13;;;18.70;30.40;;;;;;5073586;28;20754;-64
2023/03/01 10:00:54;;;;;;;5.15;3.40;;;18.70;30.40;;;;;;5073738;28;20248;-65
2023/03/01 10:03:28;;;;;;;4.05;3.03;;;18.70;30.40;;;;;;5073739;28;20227;-64
2023/03/01 10:06:05;;;;;;;7.43;3.30;;;18.70;30.40;;;;;;5073786;28;20236;-63
2023/03/01 10:08:38;;;;;;;5.63;2.80;;;18.70;30.40;;;;;;5073833;28;20210;-67
2023/03/01 10:11:18;;;;;;;5.97;3.15;;;18.80;31.10;;;;;;5072632;28;20653;-67
2023/03/01 10:13:52;;;;;;;3.78;2.70;;;18.80;30.40;;;;;;5073501;28;20268;-65
2023/03/01 10:16:26;;;;;;;3.45;2.60;;;18.80;30.40;;;;;;5072663;28;20253;-58
2023/03/01 10:18:56;;;;;;;4.63;2.80;;;18.80;30.40;;;;;;5072902;28;20635;-67
2023/03/01 10:21:26;;;;;;;3.80;3.05;;;18.80;30.40;;;;;;5071122;28;20288;-64
2023/03/01 10:23:54;;;;;;;5.22;2.35;;;18.80;30.40;;;;;;5072251;28;20280;-64
2023/03/01 10:26:40;;;;;;;2.97;2.20;;;18.80;30.40;;;;;;5073061;28;20190;-65
2023/03/01 10:29:09;;;;;;;4.10;2.50;;;18.80;30.40;;;;;;5073093;28;20236;-66
2023/03/01 10:31:44;;;;;;;4.18;2.70;;;18.80;30.40;;;;;;5072660;28;20650;-63
2023/03/01 10:34:14;;;;;;;3.97;2.58;;;18.90;30.50;;;;;;5070114;28;20218;-62
2023/03/01 10:36:48;;;;;;;7.15;2.50;;;18.90;30.50;;;;;;5073040;28;20562;-61
2023/03/01 10:39:19;;;;;;;7.55;2.55;;;18.90;30.50;;;;;;5076113;28;20222;-61
2023/03/01 10:42:00;;;;;;;4.85;2.47;;;18.90;30.50;;;;;;5052525;28;20195;-67
2023/03/01 10:44:40;;;;;;;4.35;2.60;;;18.90;30.50;;;;;;5056341;28;20215;-63
2023/03/01 10:47:17;;;;;;;3.10;2.30;;;18.90;30.50;;;;;;5060065;28;20277;-64
2023/03/01 10:49:54;;;;;;;8.57;2.78;;;18.90;30.50;;;;;;5067182;28;20190;-67
2023/03/01 10:52:24;;;;;;;5.60;2.70;;;18.90;31.20;;;;;;5052562;28;20214;-66
2023/03/01 10:54:57;;;;;;;4.15;2.50;;;18.90;30.50;;;;;;5062676;28;20193;-64
2023/03/01 10:57:37;;;;;;;4.53;2.30;;;18.90;30.50;;;;;;5052299;28;20306;-63
2023/03/01 11:00:22;;;;;;;4.53;2.40;;;18.90;30.50;;;;;;5064333;28;20227;-65
2023/03/01 11:02:51;;;;;;;5.53;2.38;;;18.90;30.50;;;;;;5052249;28;20253;-62
2023/03/01 11:05:23;;;;;;;3.20;1.92;;;18.90;30.50;;;;;;5063391;28;20198;-59
2023/03/01 11:07:53;;;;;;;3.55;2.20;;;18.90;30.50;;;;;;5056687;28;20276;-66
2023/03/01 11:10:23;;;;;;;4.40;2.47;;;18.90;30.50;;;;;;5057410;28;20241;-64
2023/03/01 11:12:52;;;;;;;3.78;2.15;;;18.90;30.50;;;;;;5068464;28;20276;-63
2023/03/01 11:15:26;;;;;;;6.85;2.20;;;18.90;30.50;;;;;;5069625;28;20649;-64
2023/03/01 11:17:55;;;;;;;3.22;2.38;;;18.90;30.50;;;;;;5069470;28;20238;-63
2023/03/01 11:20:28;;;;;;;3.97;2.17;;;18.90;30.50;;;;;;5071714;28;20630;-64
2023/03/01 11:22:59;;;;;;;4.82;2.10;;;18.90;30.50;;;;;;5071848;28;20592;-66
2023/03/01 11:25:30;;;;;;;3.67;2.10;;;18.90;30.50;;;;;;5069367;28;20194;-64
2023/03/01 11:27:59;;;;;;;7.60;2.10;;;18.90;30.50;;;;;;5066967;28;20218;-63
2023/03/01 11:30:31;;;;;;;4.80;2.20;;;18.90;30.50;;;;;;5063399;28;20252;-68
2023/03/01 11:33:09;;;;;;;4.10;2.47;;;18.90;30.50;;;;;;5068735;28;20215;-63
2023/03/01 11:35:42;;;;;;;3.45;2.15;;;18.90;30.50;;;;;;5051690;28;20615;-66
2023/03/01 11:38:20;;;;;;;4.80;2.15;;;18.90;30.50;;;;;;5063305;28;20285;-67
2023/03/01 11:40:53;;;;;;;5.88;2.15;;;18.90;30.50;;;;;;5058555;28;20742;-67
2023/03/01 11:43:27;;;;;;;3.47;2.30;;;19.00;30.60;;;;;;5071472;28;20225;-66
2023/03/01 11:46:27;;;;;;;3.30;2.08;;;18.90;30.50;;;;;;5071598;28;20277;-63
2023/03/01 11:49:04;;;;;;;3.47;2.20;;;19.00;30.60;;;;;;5071679;28;20279;-64
2023/03/01 11:51:42;;;;;;;3.15;2.03;;;18.90;30.50;;;;;;5071219;28;20191;-65
2023/03/01 11:54:30;;;;;;;3.38;2.38;;;19.00;30.60;;;;;;5071600;28;20283;-61
2023/03/01 11:57:02;;;;;;;5.55;2.20;;;19.00;30.60;;;;;;5067973;28;20267;-67
2023/03/01 11:59:56;;;;;;;5.55;2.40;;;19.00;30.60;;;;;;5068902;28;20305;-64
2023/03/01 12:03:05;;;;;;;4.35;1.77;;;19.00;30.60;;;;;;5063912;28;20203;-61
2023/03/01 12:06:03;;;;;;;4.18;2.15;;;19.00;30.60;;;;;;5067406;28;20202;-62
2023/03/01 12:08:39;;;;;;;3.08;1.80;;;19.00;30.60;;;;;;5069944;28;20218;-62
2023/03/01 12:11:21;;;;;;;4.93;2.10;;;19.00;30.60;;;;;;5070186;28;20191;-62
2023/03/01 12:14:19;;;;;;;5.90;2.10;;;19.00;30.60;;;;;;5070036;28;20309;-65
2023/03/01 12:17:17;;;;;;;4.63;2.20;;;19.00;30.60;;;;;;5068853;28;20226;-66
2023/03/01 12:20:17;;;;;;;2.30;1.70;;;19.00;30.60;;;;;;5067117;28;20252;-65
2023/03/01 12:23:16;;;;;;;4.18;2.22;;;19.00;30.60;;;;;;5064111;28;20213;-67
2023/03/01 12:25:47;;;;;;;3.42;2.08;;;19.00;30.60;;;;;;5065045;28;20257;-62
2023/03/01 12:28:44;;;;;;;3.20;1.95;;;19.00;30.60;;;;;;5066937;28;20276;-61
2023/03/01 12:31:39;;;;;;;2.58;2.00;;;19.10;30.70;;;;;;5065764;28;20254;-65
2023/03/01 12:34:21;;;;;;;4.82;1.95;;;19.10;30.70;;;;;;5055217;28;20271;-64
2023/03/01 12:37:05;;;;;;;4.95;2.35;;;19.10;30.80;;;;;;5067754;28;20260;-62
2023/03/01 12:39:49;;;;;;;4.57;2.22;;;19.10;30.70;;;;;;5063796;28;20291;-62
2023/03/01 12:42:25;;;;;;;5.25;2.17;;;19.10;30.90;;;;;;5062268;28;20265;-61
2023/03/01 12:45:06;;;;;;;5.88;1.90;;;19.20;31.30;;;;;;5059882;28;20264;-63
2023/03/01 12:47:56;;;;;;;2.83;2.15;;;19.10;31.40;;;;;;5071672;28;20245;-66
2023/03/01 12:50:26;;;;;;;3.83;2.05;;;19.20;31.40;;;;;;5069147;28;20281;-68
2023/03/01 12:52:56;;;;;;;4.57;2.20;;;19.20;31.40;;;;;;5073185;28;20603;-61
2023/03/01 12:55:30;;;;;;;3.85;2.03;;;19.20;31.20;;;;;;5074055;28;20187;-61
2023/03/01 12:58:07;;;;;;;4.90;2.03;;;19.20;31.10;;;;;;5073622;28;20295;-63
2023/03/01 13:00:40;;;;;;;5.20;2.20;;;19.20;30.90;;;;;;5072709;28;20186;-62
2023/03/01 13:03:20;;;;;;;5.65;2.05;;;19.20;30.90;;;;;;5070438;28;20195;-63
2023/03/01 13:06:03;;;;;;;2.50;1.60;;;19.20;30.80;;;;;;5068582;28;20230;-61